»·PEaware :: N819BC KPDX-KOTH

N819BC :: KPDX-KOTH

FLIGHT INFORMATION

Flight Status: Arrived
Operator: Privately registered:
United States
More flights under this callsign
Pilot: Bob C. (7429)
Aircraft: PIPER PA-24 COMMANCHE
(PA24)
More flights by this aircraft type
Origin: KPDX Portland Intl
United States
Destination: KOTH North Bend Mun
United States
More flights between these airports :: More routes between these airports
Route: +UBG TICKY RARES
File this flight plan on PilotEdge
Remarks: Newbie
Altitude:
(Current/Filed)
8,000ft
Speed:
(Current/Filed)
140kts
Departed: 05-Nov-17 12:45 PM
Arrived: 05-Nov-17 02:03 PM
Distance/Time
Traveled:
148nm/1:18
Distance/Time
To Go:
Arrived

Flight Plot

Page will automatically refresh every two minutes.

Flight plan parsing failed; only flown route is shown


Map Options




Map Legend


Flown Route
Filed Route
Departure Airport
Arrival Airport
Navaid (VOR, NDB)
Fix

Horizontal Profiles

Position Reports

Time Latitude Longitude Heading Altitude Ground
Speed
05-Nov-17 12:32 45.585085 -122.578419 209 21ft 0kts
05-Nov-17 12:33 45.585085 -122.578419 209 21ft 0kts
05-Nov-17 12:34 45.585085 -122.578419 209 21ft 0kts
05-Nov-17 12:35 45.585085 -122.578419 209 21ft 0kts
05-Nov-17 12:36 45.585085 -122.578419 209 21ft 0kts
05-Nov-17 12:37 45.585085 -122.578419 209 21ft 0kts
05-Nov-17 12:38 45.585085 -122.578419 209 21ft 0kts
05-Nov-17 12:39 45.585084 -122.578420 209 21ft 0kts
05-Nov-17 12:40 45.585082 -122.578421 209 21ft 0kts
05-Nov-17 12:41 45.585081 -122.578422 209 21ft 0kts
05-Nov-17 12:42 45.585080 -122.578422 209 21ft 0kts
05-Nov-17 12:43 45.585202 -122.578471 34 21ft 7kts
05-Nov-17 12:44 45.585683 -122.576756 46 21ft 4kts
05-Nov-17 12:45 45.585410 -122.574513 120 21ft 13kts
05-Nov-17 12:46 45.583609 -122.568953 11 21ft 0kts
05-Nov-17 12:47 45.583614 -122.568952 11 21ft 0kts
05-Nov-17 12:48 45.583622 -122.568949 11 21ft 0kts
05-Nov-17 12:49 45.583629 -122.568947 11 21ft 0kts
05-Nov-17 12:50 45.588639 -122.578030 303 160ft 84kts
05-Nov-17 12:51 45.603445 -122.605869 300 1366ft 87kts
05-Nov-17 12:52 45.601000 -122.636082 228 2553ft 92kts
05-Nov-17 12:53 45.582433 -122.663151 227 3740ft 92kts
05-Nov-17 12:54 45.563058 -122.688726 227 4473ft 93kts
05-Nov-17 12:55 45.544029 -122.713197 227 5349ft 88kts
05-Nov-17 12:56 45.524550 -122.736139 226 6127ft 89kts
05-Nov-17 12:57 45.504726 -122.758928 226 6833ft 92kts
05-Nov-17 12:58 45.484307 -122.781348 225 7486ft 94kts
05-Nov-17 12:59 45.462894 -122.804478 225 7987ft 101kts
05-Nov-17 13:00 45.438214 -122.832107 225 7982ft 123kts
05-Nov-17 13:01 45.411604 -122.861619 225 8000ft 123kts
05-Nov-17 13:02 45.384785 -122.893324 234 8016ft 124kts
05-Nov-17 13:03 45.371925 -122.937244 264 8010ft 120kts
05-Nov-17 13:04 45.352518 -122.975551 219 8005ft 130kts
05-Nov-17 13:05 45.316769 -122.992028 215 8014ft 132kts
05-Nov-17 13:06 45.287159 -123.021694 217 8016ft 132kts
05-Nov-17 13:07 45.252729 -123.042435 209 8018ft 135kts
05-Nov-17 13:08 45.218262 -123.063819 213 8019ft 134kts
05-Nov-17 13:09 45.183990 -123.085449 211 8019ft 135kts
05-Nov-17 13:10 45.149678 -123.107223 212 8029ft 135kts
05-Nov-17 13:11 45.115038 -123.129402 211 8031ft 138kts
05-Nov-17 13:12 45.080231 -123.150897 211 8031ft 135kts
05-Nov-17 13:13 45.045879 -123.172976 211 8031ft 135kts
05-Nov-17 13:14 45.011314 -123.194422 211 8031ft 135kts
05-Nov-17 13:15 44.976905 -123.216185 212 8033ft 135kts
05-Nov-17 13:16 44.941997 -123.238062 211 8033ft 137kts
05-Nov-17 13:17 44.907228 -123.259811 211 8034ft 136kts
05-Nov-17 13:18 44.872690 -123.281502 211 8039ft 136kts
05-Nov-17 13:19 44.837929 -123.302974 212 8040ft 136kts
05-Nov-17 13:20 44.803507 -123.324695 212 8044ft 135kts
05-Nov-17 13:21 44.768881 -123.346261 212 8045ft 135kts
05-Nov-17 13:22 44.734404 -123.367804 212 8048ft 135kts
05-Nov-17 13:23 44.699819 -123.389175 211 8050ft 135kts
05-Nov-17 13:24 44.667996 -123.408985 212 8050ft 136kts
05-Nov-17 13:25 44.633311 -123.430555 211 8049ft 137kts
05-Nov-17 13:26 44.598325 -123.452146 211 8051ft 137kts
05-Nov-17 13:27 44.563558 -123.473714 212 8052ft 136kts
05-Nov-17 13:28 44.528801 -123.495103 211 8052ft 136kts
05-Nov-17 13:29 44.493967 -123.516629 212 8054ft 136kts
05-Nov-17 13:30 44.459179 -123.538093 212 8057ft 136kts
05-Nov-17 13:31 44.424243 -123.559616 212 8060ft 136kts
05-Nov-17 13:32 44.389281 -123.581101 211 8060ft 137kts
05-Nov-17 13:33 44.354387 -123.602576 211 8062ft 137kts
05-Nov-17 13:34 44.319250 -123.623976 211 8065ft 137kts
05-Nov-17 13:35 44.284194 -123.645437 211 8066ft 137kts
05-Nov-17 13:36 44.249233 -123.666905 211 8063ft 136kts
05-Nov-17 13:37 44.214815 -123.687747 211 8057ft 132kts
05-Nov-17 13:38 44.181909 -123.707916 212 8055ft 127kts
05-Nov-17 13:39 44.149512 -123.727619 212 8058ft 127kts
05-Nov-17 13:40 44.116538 -123.747762 212 8067ft 131kts
05-Nov-17 13:41 44.082874 -123.768228 211 8069ft 133kts
05-Nov-17 13:42 44.048899 -123.788719 211 8070ft 132kts
05-Nov-17 13:43 44.015246 -123.809445 212 8070ft 132kts
05-Nov-17 13:44 43.981426 -123.829619 211 8071ft 132kts
05-Nov-17 13:45 43.947595 -123.850088 212 8073ft 132kts
05-Nov-17 13:46 43.913885 -123.870493 211 8073ft 132kts
05-Nov-17 13:47 43.879962 -123.890920 212 8073ft 133kts
05-Nov-17 13:48 43.846079 -123.911302 212 8075ft 132kts
05-Nov-17 13:49 43.812344 -123.931631 211 8076ft 132kts
05-Nov-17 13:50 43.778438 -123.952025 211 8078ft 132kts
05-Nov-17 13:51 43.744640 -123.972407 211 8080ft 133kts
05-Nov-17 13:52 43.710716 -123.992603 211 8083ft 132kts
05-Nov-17 13:53 43.676662 -124.013061 211 8086ft 133kts
05-Nov-17 13:54 43.643534 -124.035336 222 8088ft 129kts
05-Nov-17 13:55 43.614819 -124.065081 221 8093ft 130kts
05-Nov-17 13:56 43.579679 -124.082738 204 8083ft 133kts
05-Nov-17 13:57 43.542524 -124.101609 209 7061ft 146kts
05-Nov-17 13:58 43.504482 -124.121407 207 6033ft 147kts
05-Nov-17 13:59 43.467179 -124.141378 209 5534ft 137kts
05-Nov-17 14:00 43.432693 -124.161311 211 5534ft 133kts
05-Nov-17 14:01 43.399300 -124.181197 211 5422ft 128kts
05-Nov-17 14:02 43.366564 -124.200588 211 5108ft 127kts
05-Nov-17 14:03 43.338854 -124.226899 270 4546ft 128kts
05-Nov-17 14:04 43.345951 -124.268788 285 4717ft 111kts
05-Nov-17 14:05 43.355753 -124.309383 320 3575ft 147kts
05-Nov-17 14:06 43.386608 -124.306367 24 2012ft 129kts
05-Nov-17 14:07 43.408378 -124.275892 56 356ft 111kts
05-Nov-17 14:08 43.418369 -124.252001 53 11ft 26kts
05-Nov-17 14:09 43.419431 -124.247233 138 11ft 0kts
05-Nov-17 14:10 43.416474 -124.245633 182 11ft 16kts
05-Nov-17 14:11 43.415421 -124.245664 181 11ft 0kts
05-Nov-17 14:12 43.415421 -124.245664 181 11ft 0kts
05-Nov-17 14:13 43.415421 -124.245664 181 11ft 0kts
05-Nov-17 14:14 43.415421 -124.245664 181 11ft 0kts
05-Nov-17 14:15 43.415421 -124.245664 181 11ft 0kts
05-Nov-17 14:16 43.415421 -124.245664 181 11ft 0kts
05-Nov-17 14:17 43.415421 -124.245664 181 11ft 0kts
05-Nov-17 14:18 43.415421 -124.245664 181 11ft 0kts
05-Nov-17 14:19 43.415421 -124.245664 181 11ft 0kts
05-Nov-17 14:20 43.415421 -124.245664 181 11ft 0kts
05-Nov-17 14:21 43.415421 -124.245664 181 11ft 0kts
05-Nov-17 14:22 43.415421 -124.245664 181 11ft 0kts
05-Nov-17 14:23 43.415421 -124.245664 181 11ft 0kts

Navigation Log

Ident Type
Flight plan parsing failed, navigation log unavailable